Pearl, Illinois
Current Conditions -  °F | °C
As of 12:35 AM on Thursday 27 Nov 2014 (Local Time) from KPPQ Reporting Station
Overcast Overcast  
Wind Chill: 18°   Ceiling: 1000
Heat Index: 29°   Visibility: 7mi
Dew Point: 26°   Wind: 13mph
Humidity: 89%   Direction: 360°N
Pressure: 30.29"   Gusts: NA
Location:  39.46°N, 90.63°W
Report Text: KPPQ 270635Z AUTO 36011KT 7SM OVC010 M02/M03 A3029 RMK AO2 T10191035 PWINO
Loading
Personal Weather Stations






























Interactive Weather Map New forecast layout! Learn more

10-Day Weather Forecast

Advertisements
Track Severe Weather on mobile